Time;durP1;ratioP1;P1;durP2;ratioP2;P2;SDS_P1;SDS_P2;PMS_P1;PMS_P2;Temp;Humidity;BMP_temperature;BMP_pressure;BME280_temperature;BME280_humidity;BME280_pressure;Samples;Min_cycle;Max_cycle;Signal;HPM_P1;HPM_P2
2023/05/18 00:01:26;;;;;;;3.95;1.10;;;;;;;11.20;100.00;92591.13;5070166;28;20067;-72
2023/05/18 00:03:54;;;;;;;2.75;0.90;;;;;;;11.24;100.00;92601.75;5069671;28;20080;-72
2023/05/18 00:06:24;;;;;;;1.73;0.85;;;;;;;11.26;100.00;92596.38;5070029;28;20081;-72
2023/05/18 00:08:51;;;;;;;1.92;1.08;;;;;;;11.31;100.00;92593.91;5069595;28;20053;-72
2023/05/18 00:11:20;;;;;;;1.42;0.80;;;;;;;11.49;100.00;92595.53;5069850;28;20522;-72
2023/05/18 00:13:47;;;;;;;3.13;1.40;;;;;;;11.55;100.00;92601.53;5069435;28;20059;-72
2023/05/18 00:16:14;;;;;;;4.93;1.20;;;;;;;11.68;100.00;92603.03;5058946;28;20386;-72
2023/05/18 00:18:41;;;;;;;4.43;1.20;;;;;;;11.60;100.00;92607.53;5067113;28;20048;-72
2023/05/18 00:21:09;;;;;;;3.25;1.30;;;;;;;11.61;100.00;92608.31;5069598;28;20052;-72
2023/05/18 00:23:38;;;;;;;3.00;1.30;;;;;;;11.62;100.00;92607.31;5069763;28;20045;-72
2023/05/18 00:26:05;;;;;;;3.38;1.20;;;;;;;11.66;100.00;92602.50;5069536;28;20408;-72
2023/05/18 00:28:33;;;;;;;3.10;1.33;;;;;;;11.71;100.00;92610.31;5057121;28;20044;-72
2023/05/18 00:31:00;;;;;;;4.35;1.50;;;;;;;11.80;100.00;92606.31;5069565;28;20056;-72
2023/05/18 00:33:27;;;;;;;4.45;1.60;;;;;;;11.85;100.00;92608.22;5069369;28;20461;-72
2023/05/18 00:35:56;;;;;;;3.50;1.40;;;;;;;11.93;100.00;92604.50;5069598;28;20048;-72
2023/05/18 00:38:22;;;;;;;5.75;1.33;;;;;;;11.99;100.00;92608.69;5069429;28;20103;-72
2023/05/18 00:40:49;;;;;;;1.35;0.52;;;;;;;11.87;100.00;92606.97;5068856;28;20052;-72
2023/05/18 00:43:16;;;;;;;2.83;0.88;;;;;;;11.85;100.00;92610.78;5069430;28;20049;-72
2023/05/18 00:45:44;;;;;;;1.20;0.40;;;;;;;11.77;100.00;92610.13;5069159;28;20451;-72
2023/05/18 00:48:11;;;;;;;1.40;0.70;;;;;;;11.80;100.00;92608.13;5068766;28;20052;-72
2023/05/18 00:50:37;;;;;;;2.33;0.75;;;;;;;11.76;100.00;92603.44;5068979;28;20056;-72
2023/05/18 00:53:04;;;;;;;1.90;1.00;;;;;;;11.81;100.00;92605.31;5069054;28;20047;-72
2023/05/18 00:55:31;;;;;;;1.77;1.00;;;;;;;11.88;100.00;92605.16;5068437;28;20048;-72
2023/05/18 00:58:01;;;;;;;2.15;1.10;;;;;;;11.82;100.00;92601.75;5069274;28;20048;-72
2023/05/18 01:00:28;;;;;;;1.88;0.80;;;;;;;11.85;100.00;92598.69;5068292;28;20048;-72
2023/05/18 01:02:57;;;;;;;2.58;0.75;;;;;;;11.89;100.00;92599.78;5068756;28;20084;-72
2023/05/18 01:05:23;;;;;;;3.45;0.88;;;;;;;11.89;100.00;92594.66;5068637;28;20045;-72
2023/05/18 01:07:50;;;;;;;2.30;0.75;;;;;;;11.98;100.00;92599.41;5068577;28;20048;-72
2023/05/18 01:10:19;;;;;;;1.70;0.80;;;;;;;11.96;100.00;92602.22;5068422;28;20341;-72
2023/05/18 01:12:53;;;;;;;2.42;0.95;;;;;;;11.99;100.00;92593.25;5068971;28;20049;-72
2023/05/18 01:15:24;;;;;;;1.85;1.00;;;;;;;11.48;100.00;92542.53;5068400;28;20448;-72
2023/05/18 01:18:13;;;;;;;3.97;1.17;;;;;;;11.87;100.00;92601.84;5068686;28;20053;-72
2023/05/18 01:20:46;;;;;;;3.30;1.60;;;;;;;11.81;100.00;92586.53;5068647;28;20318;-72
2023/05/18 01:23:40;;;;;;;5.88;2.15;;;;;;;11.85;100.00;92600.50;5068066;28;20094;-72
2023/05/18 01:26:28;;;;;;;5.05;2.40;;;;;;;11.79;100.00;92596.28;5067027;28;20504;-72
2023/05/18 01:28:57;;;;;;;4.55;2.30;;;;;;;11.75;100.00;92583.06;5066491;28;20048;-72
2023/05/18 01:31:23;;;;;;;4.22;2.20;;;;;;;11.82;100.00;92586.31;5049162;28;20500;-72
2023/05/18 01:33:50;;;;;;;5.13;1.95;;;;;;;11.74;100.00;92587.47;5049332;28;20103;-72
2023/05/18 01:36:18;;;;;;;5.15;2.47;;;;;;;11.82;100.00;92588.09;5048746;28;20502;-72
2023/05/18 01:38:46;;;;;;;6.05;2.95;;;;;;;11.70;100.00;92568.34;5066739;28;20604;-72
2023/05/18 01:41:22;;;;;;;4.15;1.98;;;;;;;11.87;100.00;92588.97;5067687;28;20048;-72
2023/05/18 01:44:00;;;;;;;3.60;2.25;;;;;;;11.90;100.00;92595.44;5060573;28;20049;-72
2023/05/18 01:46:35;;;;;;;3.80;2.38;;;;;;;11.90;100.00;92596.19;5066686;28;20089;-72
2023/05/18 01:49:09;;;;;;;3.80;2.23;;;;;;;11.89;100.00;92607.50;5068031;28;20546;-72
2023/05/18 01:51:41;;;;;;;4.18;2.35;;;;;;;11.85;100.00;92606.41;5068085;28;20062;-72
2023/05/18 01:54:11;;;;;;;4.53;2.17;;;;;;;11.84;100.00;92604.84;5067737;28;20095;-72
2023/05/18 01:56:40;;;;;;;4.15;1.88;;;;;;;11.87;100.00;92608.75;5068797;28;20078;-72
2023/05/18 01:59:08;;;;;;;4.20;2.58;;;;;;;11.88;100.00;92605.16;5067995;28;20052;-71
2023/05/18 02:01:34;;;;;;;2.92;2.13;;;;;;;11.92;100.00;92605.47;5068270;28;20044;-71
2023/05/18 02:04:01;;;;;;;3.65;2.33;;;;;;;11.97;100.00;92605.56;5068179;28;20090;-72
2023/05/18 02:06:28;;;;;;;3.08;2.20;;;;;;;11.98;100.00;92602.75;5068159;28;20474;-71
2023/05/18 02:08:55;;;;;;;3.38;2.40;;;;;;;12.00;100.00;92595.56;5067424;28;20048;-71
2023/05/18 02:11:22;;;;;;;2.95;2.28;;;;;;;12.02;100.00;92600.50;5068318;28;20060;-71
2023/05/18 02:13:50;;;;;;;3.20;2.05;;;;;;;12.04;100.00;92601.09;5067989;28;20048;-71
2023/05/18 02:16:18;;;;;;;4.30;2.50;;;;;;;12.02;100.00;92603.88;5067723;28;20052;-71
2023/05/18 02:18:45;;;;;;;3.28;2.10;;;;;;;12.11;100.00;92609.44;5067244;28;20048;-71
2023/05/18 02:21:12;;;;;;;2.33;1.60;;;;;;;12.06;100.00;92603.41;5067718;28;20048;-71
2023/05/18 02:23:39;;;;;;;2.83;1.40;;;;;;;12.09;100.00;92602.97;5067464;28;20053;-71
2023/05/18 02:26:06;;;;;;;3.70;1.45;;;;;;;12.07;100.00;92608.34;5067376;28;20493;-71
2023/05/18 02:28:33;;;;;;;1.83;1.10;;;;;;;11.99;100.00;92612.03;5067817;28;20052;-71
2023/05/18 02:31:08;;;;;;;1.55;0.90;;;;;;;11.92;100.00;92614.00;5067423;28;20412;-71
2023/05/18 02:33:38;;;;;;;1.50;0.82;;;;;;;11.92;100.00;92616.56;5067919;28;20076;-71
2023/05/18 02:36:07;;;;;;;1.90;0.77;;;;;;;11.87;100.00;92622.41;5067362;28;20044;-71
2023/05/18 02:38:39;;;;;;;1.75;0.68;;;;;;;11.79;100.00;92616.88;5067393;28;20126;-71
2023/05/18 02:41:06;;;;;;;2.35;0.57;;;;;;;11.67;100.00;92614.34;5067782;28;20044;-71
2023/05/18 02:43:34;;;;;;;2.85;1.30;;;;;;;11.75;100.00;92612.16;5067839;28;20058;-71
2023/05/18 02:46:00;;;;;;;2.53;0.57;;;;;;;11.70;100.00;92611.28;5067597;28;20052;-71
2023/05/18 02:48:29;;;;;;;0.82;0.43;;;;;;;11.72;100.00;92614.44;5067642;28;20056;-71
2023/05/18 02:50:55;;;;;;;1.70;0.60;;;;;;;11.63;100.00;92609.66;5066676;28;20501;-71
2023/05/18 02:53:23;;;;;;;0.85;0.30;;;;;;;11.54;100.00;92615.41;5066935;28;20049;-71
2023/05/18 02:55:52;;;;;;;0.90;0.40;;;;;;;11.49;100.00;92614.28;5067347;28;20048;-72
2023/05/18 02:58:21;;;;;;;1.17;0.57;;;;;;;11.41;100.00;92611.31;5059831;28;20041;-71
2023/05/18 03:00:58;;;;;;;1.65;0.80;;;;;;;11.21;100.00;92608.13;5061614;28;20456;-72
2023/05/18 03:03:25;;;;;;;1.55;0.70;;;;;;;11.32;100.00;92613.47;5067111;28;20649;-72
2023/05/18 03:05:53;;;;;;;2.65;0.90;;;;;;;11.33;100.00;92620.16;5066816;28;20090;-72
2023/05/18 03:08:21;;;;;;;2.50;0.82;;;;;;;11.30;100.00;92618.81;5067417;28;20045;-72
2023/05/18 03:10:48;;;;;;;1.90;1.00;;;;;;;11.32;100.00;92621.16;5067071;28;20086;-72
2023/05/18 03:13:15;;;;;;;1.60;1.10;;;;;;;11.31;100.00;92630.69;5057806;28;20048;-72
2023/05/18 03:15:44;;;;;;;1.75;1.00;;;;;;;11.34;100.00;92634.59;5067165;28;20056;-72
2023/05/18 03:18:11;;;;;;;2.30;1.20;;;;;;;11.30;100.00;92625.78;5057702;28;20049;-72
2023/05/18 03:20:38;;;;;;;2.80;0.93;;;;;;;11.38;100.00;92634.91;5049522;28;20124;-72
2023/05/18 03:23:06;;;;;;;2.03;1.02;;;;;;;11.45;100.00;92644.06;5066932;28;20595;-72
2023/05/18 03:25:36;;;;;;;1.75;0.88;;;;;;;11.48;100.00;92647.97;5067143;28;20044;-72
2023/05/18 03:28:03;;;;;;;1.75;0.90;;;;;;;11.34;100.00;92647.44;5066599;28;20139;-72
2023/05/18 03:30:31;;;;;;;4.07;1.65;;;;;;;11.42;100.00;92641.94;5067350;28;20045;-72
2023/05/18 03:32:58;;;;;;;3.28;1.38;;;;;;;11.49;100.00;92652.09;5070828;28;20079;-72
2023/05/18 03:35:25;;;;;;;3.25;1.60;;;;;;;11.51;100.00;92662.94;5070384;28;20087;-72
2023/05/18 03:37:52;;;;;;;2.97;1.30;;;;;;;11.38;100.00;92660.63;5071299;28;20917;-72
2023/05/18 03:40:21;;;;;;;2.83;1.35;;;;;;;11.11;100.00;92638.75;5070306;28;20044;-72
2023/05/18 03:42:48;;;;;;;2.92;1.73;;;;;;;11.25;100.00;92652.16;5070978;28;20052;-72
2023/05/18 03:45:15;;;;;;;3.15;1.17;;;;;;;11.25;100.00;92653.94;5070504;28;20508;-72
2023/05/18 03:47:41;;;;;;;3.08;1.88;;;;;;;11.20;100.00;92664.91;5071200;28;20051;-72
2023/05/18 03:50:09;;;;;;;3.90;2.70;;;;;;;11.11;100.00;92669.59;5069934;28;20234;-72
2023/05/18 03:52:36;;;;;;;3.20;2.17;;;;;;;11.01;100.00;92667.63;5070312;28;20057;-71
2023/05/18 03:55:06;;;;;;;3.22;2.10;;;;;;;11.00;100.00;92653.22;5067396;28;20048;-72
2023/05/18 03:57:34;;;;;;;2.40;1.75;;;;;;;11.14;100.00;92674.31;5070294;28;20049;-72
2023/05/18 04:00:06;;;;;;;3.53;1.90;;;;;;;11.09;100.00;92672.41;5070381;28;20390;-72
2023/05/18 04:02:33;;;;;;;3.55;2.20;;;;;;;11.15;100.00;92677.66;5070372;28;20098;-72
2023/05/18 04:05:00;;;;;;;4.20;1.92;;;;;;;11.23;100.00;92682.44;5057040;28;20045;-72
2023/05/18 04:07:26;;;;;;;3.15;2.22;;;;;;;11.24;100.00;92684.00;5064294;28;20048;-72
2023/05/18 04:09:55;;;;;;;3.97;2.20;;;;;;;11.20;100.00;92665.69;5047849;28;20060;-72
2023/05/18 04:12:22;;;;;;;2.90;2.25;;;;;;;11.43;100.00;92676.94;5051985;28;20044;-72
2023/05/18 04:14:50;;;;;;;3.42;2.10;;;;;;;11.40;100.00;92679.19;5032251;28;20045;-72
2023/05/18 04:17:20;;;;;;;3.13;1.98;;;;;;;11.32;100.00;92664.88;5067292;28;20385;-72
2023/05/18 04:19:48;;;;;;;3.88;2.92;;;;;;;11.40;100.00;92679.19;5069727;28;20048;-72
2023/05/18 04:22:15;;;;;;;3.40;2.53;;;;;;;11.50;100.00;92682.72;5069914;28;20044;-72
2023/05/18 04:24:44;;;;;;;5.03;3.40;;;;;;;11.32;100.00;92685.44;5070313;28;20523;-72
2023/05/18 04:27:12;;;;;;;5.03;3.78;;;;;;;11.42;100.00;92688.22;5069976;28;20087;-73
2023/05/18 04:29:39;;;;;;;5.82;3.60;;;;;;;11.40;100.00;92686.88;5069649;28;20045;-72
2023/05/18 04:32:09;;;;;;;3.47;3.08;;;;;;;11.36;100.00;92686.56;5069579;28;20493;-72
2023/05/18 04:34:37;;;;;;;4.55;3.15;;;;;;;11.20;100.00;92690.63;5069405;28;20485;-72
2023/05/18 04:37:05;;;;;;;4.70;4.18;;;;;;;11.21;100.00;92687.81;5069413;28;20061;-71
2023/05/18 04:39:33;;;;;;;4.50;3.58;;;;;;;10.90;100.00;92686.41;5069677;28;20040;-72
2023/05/18 04:42:00;;;;;;;3.83;3.13;;;;;;;10.80;100.00;92690.28;5069040;28;20063;-71
2023/05/18 04:44:28;;;;;;;4.57;3.80;;;;;;;10.75;100.00;92695.34;5069199;28;20048;-72
2023/05/18 04:46:55;;;;;;;4.03;3.03;;;;;;;10.60;100.00;92693.19;5069647;28;20094;-72
2023/05/18 04:49:25;;;;;;;3.92;3.47;;;;;;;10.64;100.00;92696.13;5069166;28;20413;-72
2023/05/18 04:51:54;;;;;;;4.13;2.80;;;;;;;10.68;100.00;92707.50;5069319;28;20133;-72
2023/05/18 04:54:23;;;;;;;3.80;2.80;;;;;;;10.52;100.00;92708.94;5069448;28;20094;-74
2023/05/18 04:56:49;;;;;;;4.28;2.70;;;;;;;10.49;100.00;92706.81;5069083;28;20072;-72
2023/05/18 04:59:16;;;;;;;3.35;2.08;;;;;;;10.46;100.00;92708.03;5069170;28;20045;-72
2023/05/18 05:01:43;;;;;;;5.72;3.60;;;;;;;10.54;100.00;92712.06;5068832;28;20631;-72
2023/05/18 05:04:13;;;;;;;4.07;2.80;;;;;;;10.53;100.00;92710.50;5069156;28;20044;-72
2023/05/18 05:06:41;;;;;;;6.60;3.53;;;;;;;10.48;100.00;92711.19;5068880;28;20045;-72
2023/05/18 05:09:08;;;;;;;2.97;1.63;;;;;;;10.57;100.00;92709.06;5068738;28;20040;-72
2023/05/18 05:11:35;;;;;;;4.78;2.10;;;;;;;10.58;100.00;92715.75;5069404;28;20413;-72
2023/05/18 05:14:02;;;;;;;3.08;1.75;;;;;;;10.59;100.00;92716.56;5068444;28;20113;-72
2023/05/18 05:16:29;;;;;;;2.80;1.90;;;;;;;10.67;100.00;92723.91;5069133;28;20044;-72
2023/05/18 05:18:56;;;;;;;4.25;2.00;;;;;;;10.75;100.00;92723.59;5068387;28;20518;-73
2023/05/18 05:21:23;;;;;;;3.22;2.28;;;;;;;10.78;100.00;92714.66;5069541;28;20379;-72
2023/05/18 05:23:51;;;;;;;3.95;2.17;;;;;;;10.91;100.00;92732.44;5068920;28;20512;-72
2023/05/18 05:26:20;;;;;;;2.80;1.80;;;;;;;10.68;100.00;92728.84;5068228;28;20912;-72
2023/05/18 05:28:47;;;;;;;4.20;2.50;;;;;;;10.73;100.00;92728.16;5068857;28;20052;-72
2023/05/18 05:31:14;;;;;;;3.40;2.13;;;;;;;10.72;100.00;92741.22;5063960;28;20048;-72
2023/05/18 05:33:41;;;;;;;2.78;2.00;;;;;;;10.66;100.00;92741.09;5068872;28;20344;-72
2023/05/18 05:36:11;;;;;;;4.75;4.10;;;;;;;10.73;100.00;92741.00;5068535;28;20056;-72
2023/05/18 05:38:37;;;;;;;5.30;3.13;;;;;;;10.87;100.00;92741.59;5068394;28;20047;-72
2023/05/18 05:41:05;;;;;;;2.92;2.17;;;;;;;10.84;100.00;92744.59;5068087;28;20056;-72
2023/05/18 05:43:33;;;;;;;3.38;2.47;;;;;;;10.84;100.00;92749.75;5068713;28;20110;-72
2023/05/18 05:45:59;;;;;;;4.63;3.55;;;;;;;10.90;100.00;92756.56;5067869;28;20049;-73
2023/05/18 05:48:26;;;;;;;3.28;1.95;;;;;;;10.96;100.00;92752.31;5068087;28;20041;-72
2023/05/18 05:50:53;;;;;;;3.10;2.05;;;;;;;11.02;100.00;92755.78;5068285;28;20048;-72
2023/05/18 05:53:22;;;;;;;2.53;1.92;;;;;;;11.04;100.00;92753.75;5067541;28;20409;-73
2023/05/18 05:55:48;;;;;;;3.28;1.77;;;;;;;10.93;100.00;92755.34;5068051;28;20148;-72
2023/05/18 05:58:17;;;;;;;2.97;1.92;;;;;;;11.11;100.00;92756.22;5068316;28;20045;-72
2023/05/18 06:00:45;;;;;;;2.30;1.65;;;;;;;11.19;100.00;92759.25;5067969;28;20052;-72
2023/05/18 06:03:12;;;;;;;2.30;1.55;;;;;;;10.94;100.00;92760.22;5067889;28;20504;-73
2023/05/18 06:05:39;;;;;;;3.03;1.75;;;;;;;10.80;100.00;92761.47;5067942;28;20044;-72
2023/05/18 06:08:05;;;;;;;3.40;2.22;;;;;;;10.90;100.00;92763.47;5067500;28;20063;-73
2023/05/18 06:10:32;;;;;;;4.13;3.72;;;;;;;10.85;100.00;92755.66;5067644;28;20044;-73
2023/05/18 06:12:59;;;;;;;6.22;4.95;;;;;;;10.81;100.00;92760.47;5067577;28;20044;-72
2023/05/18 06:15:27;;;;;;;7.20;6.00;;;;;;;10.88;100.00;92757.78;5067308;28;20492;-73
2023/05/18 06:17:54;;;;;;;5.95;5.30;;;;;;;10.80;100.00;92749.38;5068014;28;20044;-73
2023/05/18 06:20:21;;;;;;;5.60;4.68;;;;;;;10.80;100.00;92751.19;5067697;28;20452;-73
2023/05/18 06:22:47;;;;;;;6.43;4.20;;;;;;;10.99;100.00;92761.34;5067404;28;20460;-73
2023/05/18 06:25:14;;;;;;;5.35;3.15;;;;;;;11.16;100.00;92762.25;5067563;28;20094;-73
2023/05/18 06:27:43;;;;;;;4.28;2.70;;;;;;;11.20;100.00;92767.75;5067414;28;20586;-72
2023/05/18 06:30:11;;;;;;;7.18;4.35;;;;;;;11.40;100.00;92771.75;5066977;28;20056;-73
2023/05/18 06:32:39;;;;;;;8.63;4.57;;;;;;;11.49;100.00;92767.84;5067700;28;20044;-73
2023/05/18 06:35:06;;;;;;;20.33;11.88;;;;;;;11.39;100.00;92772.75;5067285;28;20167;-73
2023/05/18 06:37:33;;;;;;;5.40;4.20;;;;;;;10.99;100.00;92780.16;5067560;28;20044;-73
2023/05/18 06:40:00;;;;;;;7.45;5.57;;;;;;;10.99;100.00;92780.16;5067446;28;20493;-72
2023/05/18 06:42:26;;;;;;;10.48;7.97;;;;;;;10.95;100.00;92779.81;5067124;28;20044;-72
2023/05/18 06:44:53;;;;;;;7.88;4.28;;;;;;;10.74;100.00;92778.53;5067060;28;20436;-72
2023/05/18 06:47:20;;;;;;;4.88;3.47;;;;;;;10.58;100.00;92784.31;5067590;28;20076;-72
2023/05/18 06:49:48;;;;;;;5.25;3.55;;;;;;;10.61;100.00;92781.31;5067229;28;20412;-72
2023/05/18 06:52:15;;;;;;;13.57;8.35;;;;;;;10.74;100.00;92790.63;5050846;28;20084;-72
2023/05/18 06:54:42;;;;;;;6.40;5.25;;;;;;;10.67;100.00;92791.50;5051614;28;20052;-72
2023/05/18 06:57:09;;;;;;;7.60;5.82;;;;;;;10.81;100.00;92794.66;5066926;28;20385;-72
2023/05/18 06:59:35;;;;;;;7.07;5.85;;;;;;;10.77;100.00;92790.94;5067117;28;20051;-72
2023/05/18 07:02:02;;;;;;;8.35;6.93;;;;;;;10.89;100.00;92790.19;5067191;28;20045;-72
2023/05/18 07:04:29;;;;;;;6.35;5.10;;;;;;;11.00;100.00;92791.97;5067104;28;20093;-73
2023/05/18 07:06:57;;;;;;;7.55;5.47;;;;;;;11.30;100.00;92791.09;5066157;28;20044;-73
2023/05/18 07:09:25;;;;;;;5.80;4.53;;;;;;;11.60;100.00;92803.06;5066959;28;20505;-73
2023/05/18 07:11:52;;;;;;;8.02;6.22;;;;;;;11.80;100.00;92808.84;5067155;28;20044;-72
2023/05/18 07:14:19;;;;;;;7.68;6.70;;;;;;;12.13;100.00;92799.72;5066819;28;20051;-73
2023/05/18 07:16:46;;;;;;;8.25;6.57;;;;;;;12.35;100.00;92817.88;5066468;28;20396;-72
2023/05/18 07:19:13;;;;;;;7.32;5.90;;;;;;;12.89;100.00;92821.09;5067231;28;20143;-73
2023/05/18 07:21:40;;;;;;;16.15;11.18;;;;;;;13.13;100.00;92836.41;5067159;28;20052;-74
2023/05/18 07:24:08;;;;;;;6.90;5.45;;;;;;;13.18;100.00;92845.03;5066939;28;20044;-73
2023/05/18 07:26:35;;;;;;;6.00;4.40;;;;;;;12.80;100.00;92852.44;5067076;28;20401;-73
2023/05/18 07:29:02;;;;;;;10.38;5.90;;;;;;;12.90;100.00;92851.81;5067602;28;20060;-73
2023/05/18 07:31:30;;;;;;;6.18;5.15;;;;;;;12.55;100.00;92845.81;5062985;28;20052;-73
2023/05/18 07:33:56;;;;;;;9.07;6.78;;;;;;;12.22;100.00;92842.09;5066856;28;20130;-72
2023/05/18 07:36:24;;;;;;;13.38;7.20;;;;;;;12.26;100.00;92850.16;5065971;28;20045;-73
2023/05/18 07:38:53;;;;;;;8.55;6.38;;;;;;;12.10;100.00;92854.22;5066825;28;20292;-73
2023/05/18 07:41:22;;;;;;;8.15;7.03;;;;;;;12.37;100.00;92851.91;5066351;28;20060;-73
2023/05/18 07:43:49;;;;;;;9.70;6.75;;;;;;;12.40;100.00;92851.47;5066115;28;20094;-73
2023/05/18 07:46:16;;;;;;;9.48;7.43;;;;;;;11.98;100.00;92860.16;5066554;28;20431;-73
2023/05/18 07:48:43;;;;;;;8.75;7.15;;;;;;;12.00;100.00;92863.28;5066476;28;20094;-72
2023/05/18 07:51:11;;;;;;;11.70;8.15;;;;;;;11.97;100.00;92871.47;5067195;28;20044;-73
2023/05/18 07:53:38;;;;;;;9.82;7.55;;;;;;;12.02;100.00;92866.44;5066273;28;20056;-72
2023/05/18 07:56:06;;;;;;;15.13;10.40;;;;;;;11.87;100.00;92866.91;5066962;28;20040;-72
2023/05/18 07:58:34;;;;;;;11.27;6.55;;;;;;;11.87;100.00;92884.91;5067158;28;20055;-72
2023/05/18 08:01:01;;;;;;;16.38;9.40;;;;;;;11.61;100.00;92888.72;5066244;28;20483;-73
2023/05/18 08:03:28;;;;;;;12.05;8.20;;;;;;;11.34;100.00;92879.63;5066779;28;20059;-72
2023/05/18 08:05:54;;;;;;;13.07;10.02;;;;;;;11.33;100.00;92878.09;5066875;28;20057;-73
2023/05/18 08:08:21;;;;;;;16.98;13.40;;;;;;;11.33;100.00;92885.00;5066581;28;20048;-72
2023/05/18 08:10:48;;;;;;;14.90;9.95;;;;;;;11.48;100.00;92877.63;5066485;28;20066;-73
2023/05/18 08:13:15;;;;;;;18.85;12.77;;;;;;;11.51;100.00;92902.13;5066608;28;20052;-72
2023/05/18 08:15:43;;;;;;;12.35;10.02;;;;;;;11.44;100.00;92893.75;5066919;28;20511;-73
2023/05/18 08:18:10;;;;;;;11.75;9.35;;;;;;;11.55;100.00;92903.25;5059987;28;20052;-73
2023/05/18 08:20:37;;;;;;;13.05;10.13;;;;;;;11.63;100.00;92897.78;5062453;28;20052;-73
2023/05/18 08:23:04;;;;;;;13.93;10.90;;;;;;;11.50;100.00;92887.72;5062912;28;20045;-73
2023/05/18 08:25:31;;;;;;;15.30;10.48;;;;;;;11.84;100.00;92910.28;5061862;28;20052;-73
2023/05/18 08:27:58;;;;;;;11.75;9.43;;;;;;;11.82;100.00;92925.19;5051054;28;20053;-72
2023/05/18 08:30:25;;;;;;;11.95;8.82;;;;;;;11.66;100.00;92924.06;5062705;28;20552;-73
2023/05/18 08:32:53;;;;;;;13.95;10.35;;;;;;;11.56;100.00;92925.41;5069502;28;20056;-72
2023/05/18 08:35:20;;;;;;;13.70;10.38;;;;;;;11.53;100.00;92919.91;5069161;28;20566;-72
2023/05/18 08:37:48;;;;;;;13.80;10.82;;;;;;;11.35;100.00;92929.28;5069685;28;20122;-72
2023/05/18 08:40:15;;;;;;;13.75;10.25;;;;;;;11.38;100.00;92936.56;5068800;28;20083;-73
2023/05/18 08:42:48;;;;;;;12.52;9.52;;;;;;;11.30;100.00;92937.66;5069227;28;20044;-73
2023/05/18 08:45:22;;;;;;;12.27;8.52;;;;;;;11.24;100.00;92925.69;5069202;28;20550;-73
2023/05/18 08:47:50;;;;;;;23.05;13.70;;;;;;;11.26;100.00;92948.59;5061934;28;20129;-72
2023/05/18 08:50:21;;;;;;;18.15;11.85;;;;;;;11.11;100.00;92938.72;5067636;28;20049;-73
2023/05/18 08:52:50;;;;;;;26.25;16.77;;;;;;;11.13;100.00;92950.38;5069317;28;20044;-73
2023/05/18 08:55:18;;;;;;;42.38;23.08;;;;;;;11.12;100.00;92950.56;5068699;28;20106;-73
2023/05/18 08:57:49;;;;;;;56.53;32.35;;;;;;;11.08;100.00;92950.25;5068876;28;20109;-73
2023/05/18 09:00:17;;;;;;;18.85;13.48;;;;;;;11.20;100.00;92948.47;5043864;28;20044;-73
2023/05/18 09:02:44;;;;;;;15.25;11.98;;;;;;;11.20;100.00;92953.63;5069121;28;20139;-73
2023/05/18 09:05:12;;;;;;;11.25;8.80;;;;;;;11.25;100.00;92962.47;5068843;28;20721;-73
2023/05/18 09:07:41;;;;;;;14.63;10.57;;;;;;;11.09;100.00;92964.66;5068959;28;20489;-73
2023/05/18 09:10:10;;;;;;;12.80;8.77;;;;;;;11.18;100.00;92971.06;5068678;28;20080;-73
2023/05/18 09:12:38;;;;;;;15.00;10.65;;;;;;;11.15;100.00;92953.50;5069431;28;20417;-72
2023/05/18 09:15:07;;;;;;;14.20;9.57;;;;;;;11.35;100.00;92966.06;5068603;28;20523;-73
2023/05/18 09:17:33;;;;;;;13.30;10.15;;;;;;;11.34;100.00;92969.63;5067081;28;20051;-73
2023/05/18 09:20:00;;;;;;;13.77;8.63;;;;;;;11.38;100.00;92975.13;5065037;28;20098;-73
2023/05/18 09:22:27;;;;;;;10.73;8.52;;;;;;;11.27;100.00;92965.59;5068896;28;20048;-73
2023/05/18 09:24:56;;;;;;;12.10;8.48;;;;;;;11.32;100.00;92986.28;5067856;28;20051;-72
2023/05/18 09:27:23;;;;;;;14.52;9.80;;;;;;;11.36;100.00;92979.72;5068615;28;20052;-73
2023/05/18 09:29:54;;;;;;;39.72;20.85;;;;;;;11.25;100.00;92983.81;5067624;28;20048;-72
2023/05/18 09:32:21;;;;;;;17.13;12.82;;;;;;;11.36;100.00;92970.19;5068366;28;20107;-72
2023/05/18 09:34:49;;;;;;;18.00;13.00;;;;;;;11.59;100.00;92984.13;5068591;28;20537;-73
2023/05/18 09:37:17;;;;;;;15.23;11.90;;;;;;;11.36;100.00;92987.44;5068231;28;20048;-72
2023/05/18 09:39:44;;;;;;;11.73;9.20;;;;;;;11.41;100.00;92971.34;5060053;28;20052;-72
2023/05/18 09:42:12;;;;;;;12.55;8.40;;;;;;;11.48;100.00;92975.38;5048662;28;20048;-73
2023/05/18 09:44:41;;;;;;;11.60;8.32;;;;;;;11.37;100.00;92978.72;5055380;28;20135;-73
2023/05/18 09:47:09;;;;;;;13.00;8.98;;;;;;;11.24;100.00;92966.81;5067882;28;20056;-73
2023/05/18 09:49:37;;;;;;;10.38;8.07;;;;;;;11.39;100.00;92971.53;5068114;28;20566;-73
2023/05/18 09:52:08;;;;;;;10.68;8.70;;;;;;;11.33;100.00;92977.56;5067786;28;20048;-73
2023/05/18 09:54:36;;;;;;;9.73;7.57;;;;;;;11.38;100.00;92980.28;5068084;28;20037;-73
2023/05/18 09:57:04;;;;;;;10.77;7.55;;;;;;;11.18;100.00;92977.97;5067462;28;20044;-72
2023/05/18 09:59:35;;;;;;;13.85;10.07;;;;;;;11.42;100.00;92980.59;5067676;28;20048;-73
2023/05/18 10:02:04;;;;;;;11.20;8.27;;;;;;;11.45;100.00;92982.75;5067892;28;20049;-73
2023/05/18 10:04:39;;;;;;;11.80;7.68;;;;;;;11.65;100.00;92982.44;5067666;28;20061;-72
2023/05/18 10:07:12;;;;;;;13.93;8.25;;;;;;;11.57;100.00;92991.28;5067343;28;20629;-73
2023/05/18 10:09:40;;;;;;;10.27;7.45;;;;;;;11.38;100.00;92990.56;5067549;28;20044;-72
2023/05/18 10:12:11;;;;;;;10.38;7.78;;;;;;;11.26;100.00;92993.09;5067464;28;20080;-72
2023/05/18 10:14:40;;;;;;;12.30;8.98;;;;;;;11.27;100.00;92988.72;5067618;28;20600;-73
2023/05/18 10:17:07;;;;;;;12.50;8.80;;;;;;;11.33;100.00;92987.84;5067798;28;20942;-73
2023/05/18 10:19:36;;;;;;;11.82;9.13;;;;;;;11.29;100.00;92986.75;5061623;28;20040;-72
2023/05/18 10:22:03;;;;;;;12.57;8.88;;;;;;;11.31;100.00;92980.38;5062040;28;20539;-72
2023/05/18 10:24:34;;;;;;;13.88;9.90;;;;;;;11.26;100.00;92987.16;5061034;28;20052;-72
2023/05/18 10:27:06;;;;;;;20.92;13.80;;;;;;;11.50;100.00;92986.22;5067498;28;20118;-73
2023/05/18 10:29:34;;;;;;;21.15;14.02;;;;;;;11.50;100.00;92982.88;5067006;28;20405;-73
2023/05/18 10:32:04;;;;;;;14.35;10.88;;;;;;;11.55;100.00;92992.50;5067447;28;20413;-72
2023/05/18 10:34:32;;;;;;;18.65;13.20;;;;;;;11.56;100.00;92988.91;5067233;28;20045;-72
2023/05/18 10:37:03;;;;;;;13.50;9.75;;;;;;;11.35;100.00;92984.06;5066963;28;20050;-72
2023/05/18 10:39:31;;;;;;;15.32;11.55;;;;;;;11.05;100.00;92966.09;5066925;28;20501;-72
2023/05/18 10:42:00;;;;;;;21.98;14.35;;;;;;;11.24;100.00;92992.53;5066192;28;20052;-72
2023/05/18 10:44:27;;;;;;;14.35;9.63;;;;;;;11.20;100.00;92992.19;5066966;28;20045;-72
2023/05/18 10:46:54;;;;;;;14.13;10.38;;;;;;;11.19;100.00;92987.25;5067503;28;20059;-73
2023/05/18 10:49:25;;;;;;;13.27;9.05;;;;;;;11.27;100.00;92986.16;5067754;28;20045;-72
2023/05/18 10:51:54;;;;;;;15.45;10.52;;;;;;;11.27;100.00;92988.72;5066990;28;20049;-73
2023/05/18 10:54:22;;;;;;;11.50;8.95;;;;;;;11.34;100.00;92971.44;5066656;28;20559;-72
2023/05/18 10:56:53;;;;;;;13.70;8.57;;;;;;;11.44;100.00;92981.19;5055219;28;20118;-72
2023/05/18 10:59:22;;;;;;;9.70;7.25;;;;;;;11.39;100.00;92984.41;5066334;28;20495;-72
2023/05/18 11:01:51;;;;;;;13.30;9.23;;;;;;;11.45;100.00;92983.53;5066844;28;20052;-72
2023/05/18 11:04:25;;;;;;;10.00;7.65;;;;;;;11.36;100.00;92988.19;5066471;28;20040;-72
2023/05/18 11:06:58;;;;;;;12.07;8.57;;;;;;;11.33;100.00;92977.56;5067351;28;20052;-73
2023/05/18 11:09:25;;;;;;;12.45;8.50;;;;;;;11.39;100.00;92981.06;5067008;28;20052;-73
2023/05/18 11:11:54;;;;;;;12.77;9.70;;;;;;;11.58;100.00;92974.06;5066763;28;20052;-73
2023/05/18 11:14:29;;;;;;;15.00;9.13;;;;;;;11.45;100.00;92975.03;5066522;28;20045;-73
2023/05/18 11:17:15;;;;;;;19.63;11.27;;;;;;;11.30;100.00;92965.16;5067110;28;20056;-73
2023/05/18 11:20:14;;;;;;;19.23;11.32;;;;;;;11.72;100.00;92985.69;5066408;28;20066;-72
2023/05/18 11:22:46;;;;;;;25.58;13.00;;;;;;;11.55;100.00;92998.44;5063289;28;20088;-72
2023/05/18 11:25:42;;;;;;;14.13;8.88;;;;;;;11.47;100.00;92986.66;5055448;28;20052;-73
2023/05/18 11:28:12;;;;;;;17.63;10.60;;;;;;;11.43;100.00;92989.91;5045720;28;20075;-73